sensor_id;sensor_type;location;lat;lon;timestamp;P1;durP1;ratioP1;P2;durP2;ratioP2
15776;SDS011;7989;51.198;6.676;2023-12-29T00:02:05;8.02;;;2.78;;
15776;SDS011;7989;51.198;6.676;2023-12-29T00:04:32;3.67;;;1.70;;
15776;SDS011;7989;51.198;6.676;2023-12-29T00:06:59;7.03;;;2.25;;
15776;SDS011;7989;51.198;6.676;2023-12-29T00:09:27;4.85;;;2.47;;
15776;SDS011;7989;51.198;6.676;2023-12-29T00:11:54;6.07;;;1.85;;
15776;SDS011;7989;51.198;6.676;2023-12-29T00:14:21;6.88;;;1.83;;
15776;SDS011;7989;51.198;6.676;2023-12-29T00:16:49;6.07;;;2.00;;
15776;SDS011;7989;51.198;6.676;2023-12-29T00:19:16;5.97;;;1.95;;
15776;SDS011;7989;51.198;6.676;2023-12-29T00:21:42;4.03;;;1.63;;
15776;SDS011;7989;51.198;6.676;2023-12-29T00:24:09;3.85;;;1.70;;
15776;SDS011;7989;51.198;6.676;2023-12-29T00:26:36;5.45;;;1.80;;
15776;SDS011;7989;51.198;6.676;2023-12-29T00:29:03;5.00;;;2.38;;
15776;SDS011;7989;51.198;6.676;2023-12-29T00:31:31;6.70;;;1.70;;
15776;SDS011;7989;51.198;6.676;2023-12-29T00:33:59;5.57;;;1.63;;
15776;SDS011;7989;51.198;6.676;2023-12-29T00:36:26;6.13;;;1.90;;
15776;SDS011;7989;51.198;6.676;2023-12-29T00:38:52;7.25;;;1.52;;
15776;SDS011;7989;51.198;6.676;2023-12-29T00:41:19;7.05;;;1.80;;
15776;SDS011;7989;51.198;6.676;2023-12-29T00:43:46;4.43;;;2.00;;
15776;SDS011;7989;51.198;6.676;2023-12-29T00:46:13;8.48;;;2.03;;
15776;SDS011;7989;51.198;6.676;2023-12-29T00:48:40;5.78;;;1.58;;
15776;SDS011;7989;51.198;6.676;2023-12-29T00:51:09;6.82;;;1.90;;
15776;SDS011;7989;51.198;6.676;2023-12-29T00:53:36;4.40;;;1.50;;
15776;SDS011;7989;51.198;6.676;2023-12-29T00:56:03;7.65;;;2.03;;
15776;SDS011;7989;51.198;6.676;2023-12-29T00:58:35;4.47;;;1.50;;
15776;SDS011;7989;51.198;6.676;2023-12-29T01:01:02;6.85;;;1.98;;
15776;SDS011;7989;51.198;6.676;2023-12-29T01:03:29;4.13;;;2.40;;
15776;SDS011;7989;51.198;6.676;2023-12-29T01:05:56;7.40;;;1.80;;
15776;SDS011;7989;51.198;6.676;2023-12-29T01:08:24;7.10;;;2.38;;
15776;SDS011;7989;51.198;6.676;2023-12-29T01:10:51;3.65;;;1.55;;
15776;SDS011;7989;51.198;6.676;2023-12-29T01:13:17;4.60;;;1.80;;
15776;SDS011;7989;51.198;6.676;2023-12-29T01:15:44;7.78;;;2.10;;
15776;SDS011;7989;51.198;6.676;2023-12-29T01:18:11;10.52;;;1.75;;
15776;SDS011;7989;51.198;6.676;2023-12-29T01:20:38;4.82;;;1.70;;
15776;SDS011;7989;51.198;6.676;2023-12-29T01:23:06;4.68;;;1.63;;
15776;SDS011;7989;51.198;6.676;2023-12-29T01:25:34;5.07;;;1.83;;
15776;SDS011;7989;51.198;6.676;2023-12-29T01:28:01;9.18;;;2.28;;
15776;SDS011;7989;51.198;6.676;2023-12-29T01:30:27;4.18;;;1.60;;
15776;SDS011;7989;51.198;6.676;2023-12-29T01:32:54;4.30;;;1.50;;
15776;SDS011;7989;51.198;6.676;2023-12-29T01:35:24;5.22;;;1.77;;
15776;SDS011;7989;51.198;6.676;2023-12-29T01:37:50;9.32;;;2.47;;
15776;SDS011;7989;51.198;6.676;2023-12-29T01:40:17;8.35;;;2.00;;
15776;SDS011;7989;51.198;6.676;2023-12-29T01:42:46;6.15;;;2.10;;
15776;SDS011;7989;51.198;6.676;2023-12-29T01:45:16;5.53;;;1.98;;
15776;SDS011;7989;51.198;6.676;2023-12-29T01:47:48;4.57;;;1.90;;
15776;SDS011;7989;51.198;6.676;2023-12-29T01:50:15;6.05;;;2.38;;
15776;SDS011;7989;51.198;6.676;2023-12-29T01:52:43;6.07;;;2.17;;
15776;SDS011;7989;51.198;6.676;2023-12-29T01:55:12;4.90;;;1.70;;
15776;SDS011;7989;51.198;6.676;2023-12-29T01:57:43;7.75;;;2.35;;
15776;SDS011;7989;51.198;6.676;2023-12-29T02:00:12;5.47;;;2.00;;
15776;SDS011;7989;51.198;6.676;2023-12-29T02:02:41;6.38;;;1.90;;
15776;SDS011;7989;51.198;6.676;2023-12-29T02:05:08;7.95;;;2.10;;
15776;SDS011;7989;51.198;6.676;2023-12-29T02:07:39;6.20;;;2.22;;
15776;SDS011;7989;51.198;6.676;2023-12-29T02:10:07;6.55;;;2.15;;
15776;SDS011;7989;51.198;6.676;2023-12-29T02:12:34;8.50;;;2.42;;
15776;SDS011;7989;51.198;6.676;2023-12-29T02:15:02;6.50;;;2.53;;
15776;SDS011;7989;51.198;6.676;2023-12-29T02:17:34;4.88;;;2.13;;
15776;SDS011;7989;51.198;6.676;2023-12-29T02:20:04;6.25;;;1.92;;
15776;SDS011;7989;51.198;6.676;2023-12-29T02:22:33;9.65;;;2.70;;
15776;SDS011;7989;51.198;6.676;2023-12-29T02:25:01;7.90;;;2.22;;
15776;SDS011;7989;51.198;6.676;2023-12-29T02:27:31;10.50;;;2.90;;
15776;SDS011;7989;51.198;6.676;2023-12-29T02:30:08;8.90;;;3.08;;
15776;SDS011;7989;51.198;6.676;2023-12-29T02:32:38;7.10;;;2.22;;
15776;SDS011;7989;51.198;6.676;2023-12-29T02:35:06;7.35;;;2.00;;
15776;SDS011;7989;51.198;6.676;2023-12-29T02:37:37;6.60;;;2.40;;
15776;SDS011;7989;51.198;6.676;2023-12-29T02:40:07;11.18;;;2.58;;
15776;SDS011;7989;51.198;6.676;2023-12-29T02:42:35;10.77;;;2.60;;
15776;SDS011;7989;51.198;6.676;2023-12-29T02:45:02;8.43;;;2.78;;
15776;SDS011;7989;51.198;6.676;2023-12-29T02:47:29;9.02;;;2.95;;
15776;SDS011;7989;51.198;6.676;2023-12-29T02:49:56;11.00;;;2.40;;
15776;SDS011;7989;51.198;6.676;2023-12-29T02:52:21;6.82;;;2.67;;
15776;SDS011;7989;51.198;6.676;2023-12-29T02:54:48;7.13;;;2.30;;
15776;SDS011;7989;51.198;6.676;2023-12-29T02:57:16;7.80;;;2.08;;
15776;SDS011;7989;51.198;6.676;2023-12-29T02:59:43;8.10;;;3.45;;
15776;SDS011;7989;51.198;6.676;2023-12-29T03:02:13;10.05;;;4.88;;
15776;SDS011;7989;51.198;6.676;2023-12-29T03:04:40;5.45;;;2.05;;
15776;SDS011;7989;51.198;6.676;2023-12-29T03:07:06;6.65;;;2.15;;
15776;SDS011;7989;51.198;6.676;2023-12-29T03:09:34;7.55;;;2.13;;
15776;SDS011;7989;51.198;6.676;2023-12-29T03:12:00;8.40;;;2.38;;
15776;SDS011;7989;51.198;6.676;2023-12-29T03:14:29;7.40;;;2.25;;
15776;SDS011;7989;51.198;6.676;2023-12-29T03:16:55;6.65;;;2.47;;
15776;SDS011;7989;51.198;6.676;2023-12-29T03:19:22;8.77;;;2.92;;
15776;SDS011;7989;51.198;6.676;2023-12-29T03:21:49;9.55;;;3.38;;
15776;SDS011;7989;51.198;6.676;2023-12-29T03:24:17;12.50;;;3.92;;
15776;SDS011;7989;51.198;6.676;2023-12-29T03:26:44;7.85;;;2.10;;
15776;SDS011;7989;51.198;6.676;2023-12-29T03:29:11;10.15;;;2.83;;
15776;SDS011;7989;51.198;6.676;2023-12-29T03:31:39;10.43;;;2.60;;
15776;SDS011;7989;51.198;6.676;2023-12-29T03:34:06;7.55;;;3.08;;
15776;SDS011;7989;51.198;6.676;2023-12-29T03:36:33;11.93;;;3.92;;
15776;SDS011;7989;51.198;6.676;2023-12-29T03:38:59;5.45;;;2.70;;
15776;SDS011;7989;51.198;6.676;2023-12-29T03:41:27;7.93;;;2.13;;
15776;SDS011;7989;51.198;6.676;2023-12-29T03:43:54;8.90;;;2.10;;
15776;SDS011;7989;51.198;6.676;2023-12-29T03:46:22;9.00;;;2.65;;
15776;SDS011;7989;51.198;6.676;2023-12-29T03:48:50;5.70;;;1.88;;
15776;SDS011;7989;51.198;6.676;2023-12-29T03:51:18;6.10;;;2.05;;
15776;SDS011;7989;51.198;6.676;2023-12-29T03:53:45;7.47;;;2.15;;
15776;SDS011;7989;51.198;6.676;2023-12-29T03:56:13;8.23;;;2.33;;
15776;SDS011;7989;51.198;6.676;2023-12-29T03:58:40;10.02;;;2.65;;
15776;SDS011;7989;51.198;6.676;2023-12-29T04:01:09;8.18;;;2.33;;
15776;SDS011;7989;51.198;6.676;2023-12-29T04:03:35;7.63;;;2.55;;
15776;SDS011;7989;51.198;6.676;2023-12-29T04:06:04;7.03;;;1.75;;
15776;SDS011;7989;51.198;6.676;2023-12-29T04:08:31;7.50;;;2.30;;
15776;SDS011;7989;51.198;6.676;2023-12-29T04:10:58;4.85;;;1.73;;
15776;SDS011;7989;51.198;6.676;2023-12-29T04:13:25;6.07;;;2.13;;
15776;SDS011;7989;51.198;6.676;2023-12-29T04:15:52;7.53;;;2.10;;
15776;SDS011;7989;51.198;6.676;2023-12-29T04:18:20;10.52;;;2.72;;
15776;SDS011;7989;51.198;6.676;2023-12-29T04:20:48;7.72;;;2.47;;
15776;SDS011;7989;51.198;6.676;2023-12-29T04:23:16;7.45;;;2.22;;
15776;SDS011;7989;51.198;6.676;2023-12-29T04:25:43;7.70;;;1.98;;
15776;SDS011;7989;51.198;6.676;2023-12-29T04:28:09;9.07;;;2.40;;
15776;SDS011;7989;51.198;6.676;2023-12-29T04:30:36;6.93;;;1.42;;
15776;SDS011;7989;51.198;6.676;2023-12-29T04:33:03;9.25;;;2.47;;
15776;SDS011;7989;51.198;6.676;2023-12-29T04:35:30;6.78;;;1.98;;
15776;SDS011;7989;51.198;6.676;2023-12-29T04:37:57;5.35;;;1.80;;
15776;SDS011;7989;51.198;6.676;2023-12-29T04:40:25;7.72;;;2.13;;
15776;SDS011;7989;51.198;6.676;2023-12-29T04:42:52;5.68;;;1.80;;
15776;SDS011;7989;51.198;6.676;2023-12-29T04:45:19;7.93;;;2.33;;
15776;SDS011;7989;51.198;6.676;2023-12-29T04:47:46;6.32;;;1.80;;
15776;SDS011;7989;51.198;6.676;2023-12-29T04:50:12;7.07;;;2.00;;
15776;SDS011;7989;51.198;6.676;2023-12-29T04:52:39;5.70;;;2.33;;
15776;SDS011;7989;51.198;6.676;2023-12-29T04:55:06;5.15;;;1.80;;
15776;SDS011;7989;51.198;6.676;2023-12-29T04:57:38;8.02;;;2.35;;
15776;SDS011;7989;51.198;6.676;2023-12-29T05:00:08;6.78;;;1.65;;
15776;SDS011;7989;51.198;6.676;2023-12-29T05:02:35;6.97;;;1.85;;
15776;SDS011;7989;51.198;6.676;2023-12-29T05:05:02;4.32;;;1.85;;
15776;SDS011;7989;51.198;6.676;2023-12-29T05:07:29;8.05;;;1.50;;
15776;SDS011;7989;51.198;6.676;2023-12-29T05:09:56;7.95;;;2.08;;
15776;SDS011;7989;51.198;6.676;2023-12-29T05:12:23;6.25;;;1.90;;
15776;SDS011;7989;51.198;6.676;2023-12-29T05:14:51;5.18;;;1.92;;
15776;SDS011;7989;51.198;6.676;2023-12-29T05:17:18;9.80;;;2.70;;
15776;SDS011;7989;51.198;6.676;2023-12-29T05:19:45;6.40;;;1.70;;
15776;SDS011;7989;51.198;6.676;2023-12-29T05:22:16;7.28;;;2.13;;
15776;SDS011;7989;51.198;6.676;2023-12-29T05:24:43;6.43;;;2.63;;
15776;SDS011;7989;51.198;6.676;2023-12-29T05:27:10;6.93;;;2.78;;
15776;SDS011;7989;51.198;6.676;2023-12-29T05:29:37;7.15;;;2.15;;
15776;SDS011;7989;51.198;6.676;2023-12-29T05:32:05;10.13;;;2.25;;
15776;SDS011;7989;51.198;6.676;2023-12-29T05:34:33;10.07;;;2.65;;
15776;SDS011;7989;51.198;6.676;2023-12-29T05:37:00;5.60;;;1.90;;
15776;SDS011;7989;51.198;6.676;2023-12-29T05:39:27;5.45;;;2.60;;
15776;SDS011;7989;51.198;6.676;2023-12-29T05:41:54;9.48;;;3.30;;
15776;SDS011;7989;51.198;6.676;2023-12-29T05:44:21;6.15;;;2.67;;
15776;SDS011;7989;51.198;6.676;2023-12-29T05:46:48;6.30;;;1.80;;
15776;SDS011;7989;51.198;6.676;2023-12-29T05:49:16;10.23;;;2.90;;
15776;SDS011;7989;51.198;6.676;2023-12-29T05:51:43;8.23;;;2.15;;
15776;SDS011;7989;51.198;6.676;2023-12-29T05:54:10;9.15;;;2.65;;
15776;SDS011;7989;51.198;6.676;2023-12-29T05:56:37;6.68;;;2.30;;
15776;SDS011;7989;51.198;6.676;2023-12-29T05:59:04;6.68;;;2.50;;
15776;SDS011;7989;51.198;6.676;2023-12-29T06:01:31;6.47;;;2.20;;
15776;SDS011;7989;51.198;6.676;2023-12-29T06:03:58;6.35;;;1.95;;
15776;SDS011;7989;51.198;6.676;2023-12-29T06:06:26;7.22;;;2.63;;
15776;SDS011;7989;51.198;6.676;2023-12-29T06:08:53;5.68;;;2.40;;
15776;SDS011;7989;51.198;6.676;2023-12-29T06:11:20;10.32;;;2.65;;
15776;SDS011;7989;51.198;6.676;2023-12-29T06:13:47;7.53;;;2.05;;
15776;SDS011;7989;51.198;6.676;2023-12-29T06:16:18;10.77;;;2.53;;
15776;SDS011;7989;51.198;6.676;2023-12-29T06:18:45;7.38;;;2.03;;
15776;SDS011;7989;51.198;6.676;2023-12-29T06:21:12;10.73;;;2.40;;
15776;SDS011;7989;51.198;6.676;2023-12-29T06:23:41;7.45;;;1.98;;
15776;SDS011;7989;51.198;6.676;2023-12-29T06:26:13;5.72;;;1.88;;
15776;SDS011;7989;51.198;6.676;2023-12-29T06:28:41;6.72;;;1.70;;
15776;SDS011;7989;51.198;6.676;2023-12-29T06:31:08;6.53;;;1.92;;
15776;SDS011;7989;51.198;6.676;2023-12-29T06:33:35;7.13;;;1.48;;
15776;SDS011;7989;51.198;6.676;2023-12-29T06:36:02;5.57;;;1.90;;
15776;SDS011;7989;51.198;6.676;2023-12-29T06:38:29;6.85;;;2.05;;
15776;SDS011;7989;51.198;6.676;2023-12-29T06:41:00;5.60;;;1.83;;
15776;SDS011;7989;51.198;6.676;2023-12-29T06:43:28;8.52;;;2.83;;
15776;SDS011;7989;51.198;6.676;2023-12-29T06:45:54;6.05;;;2.08;;
15776;SDS011;7989;51.198;6.676;2023-12-29T06:48:21;6.65;;;1.77;;
15776;SDS011;7989;51.198;6.676;2023-12-29T06:50:48;5.85;;;1.90;;
15776;SDS011;7989;51.198;6.676;2023-12-29T06:53:15;8.45;;;2.33;;
15776;SDS011;7989;51.198;6.676;2023-12-29T06:55:42;6.68;;;2.35;;
15776;SDS011;7989;51.198;6.676;2023-12-29T06:58:10;8.13;;;1.92;;
15776;SDS011;7989;51.198;6.676;2023-12-29T07:00:37;5.07;;;1.85;;
15776;SDS011;7989;51.198;6.676;2023-12-29T07:03:04;7.10;;;1.83;;
15776;SDS011;7989;51.198;6.676;2023-12-29T07:05:31;8.63;;;1.98;;
15776;SDS011;7989;51.198;6.676;2023-12-29T07:07:58;4.80;;;1.55;;
15776;SDS011;7989;51.198;6.676;2023-12-29T07:10:25;8.75;;;2.22;;
15776;SDS011;7989;51.198;6.676;2023-12-29T07:12:52;10.23;;;2.50;;
15776;SDS011;7989;51.198;6.676;2023-12-29T07:15:20;6.53;;;1.92;;
15776;SDS011;7989;51.198;6.676;2023-12-29T07:17:47;8.93;;;2.42;;
15776;SDS011;7989;51.198;6.676;2023-12-29T07:20:14;3.63;;;1.65;;
15776;SDS011;7989;51.198;6.676;2023-12-29T07:22:41;7.45;;;2.30;;
15776;SDS011;7989;51.198;6.676;2023-12-29T07:25:08;7.20;;;2.03;;
15776;SDS011;7989;51.198;6.676;2023-12-29T07:27:36;11.48;;;2.17;;
15776;SDS011;7989;51.198;6.676;2023-12-29T07:30:03;4.22;;;1.60;;
15776;SDS011;7989;51.198;6.676;2023-12-29T07:32:32;7.40;;;2.20;;
15776;SDS011;7989;51.198;6.676;2023-12-29T07:34:59;8.23;;;2.42;;
15776;SDS011;7989;51.198;6.676;2023-12-29T07:37:26;7.40;;;1.88;;
15776;SDS011;7989;51.198;6.676;2023-12-29T07:39:53;6.18;;;1.95;;
15776;SDS011;7989;51.198;6.676;2023-12-29T07:42:19;6.88;;;2.10;;
15776;SDS011;7989;51.198;6.676;2023-12-29T07:44:46;8.52;;;2.15;;
15776;SDS011;7989;51.198;6.676;2023-12-29T07:47:13;6.68;;;1.90;;
15776;SDS011;7989;51.198;6.676;2023-12-29T07:49:42;9.13;;;2.28;;
15776;SDS011;7989;51.198;6.676;2023-12-29T07:52:09;6.53;;;1.98;;
15776;SDS011;7989;51.198;6.676;2023-12-29T07:54:36;7.43;;;2.75;;
15776;SDS011;7989;51.198;6.676;2023-12-29T07:57:03;7.85;;;2.40;;
15776;SDS011;7989;51.198;6.676;2023-12-29T07:59:30;5.53;;;1.70;;
15776;SDS011;7989;51.198;6.676;2023-12-29T08:01:56;5.45;;;2.13;;
15776;SDS011;7989;51.198;6.676;2023-12-29T08:04:23;9.43;;;2.22;;
15776;SDS011;7989;51.198;6.676;2023-12-29T08:06:51;7.07;;;1.80;;
15776;SDS011;7989;51.198;6.676;2023-12-29T08:09:18;5.72;;;1.80;;
15776;SDS011;7989;51.198;6.676;2023-12-29T08:11:46;4.18;;;1.85;;
15776;SDS011;7989;51.198;6.676;2023-12-29T08:14:13;5.50;;;1.63;;
15776;SDS011;7989;51.198;6.676;2023-12-29T08:16:40;9.82;;;1.95;;
15776;SDS011;7989;51.198;6.676;2023-12-29T08:19:07;4.43;;;1.70;;
15776;SDS011;7989;51.198;6.676;2023-12-29T08:21:35;7.82;;;2.03;;
15776;SDS011;7989;51.198;6.676;2023-12-29T08:24:06;8.50;;;2.10;;
15776;SDS011;7989;51.198;6.676;2023-12-29T08:26:33;6.75;;;2.55;;
15776;SDS011;7989;51.198;6.676;2023-12-29T08:28:59;6.72;;;2.20;;
15776;SDS011;7989;51.198;6.676;2023-12-29T08:31:26;6.60;;;2.20;;
15776;SDS011;7989;51.198;6.676;2023-12-29T08:33:54;5.55;;;2.30;;
15776;SDS011;7989;51.198;6.676;2023-12-29T08:36:21;6.95;;;2.42;;
15776;SDS011;7989;51.198;6.676;2023-12-29T08:38:48;7.80;;;1.90;;
15776;SDS011;7989;51.198;6.676;2023-12-29T08:41:16;4.22;;;1.83;;
15776;SDS011;7989;51.198;6.676;2023-12-29T08:43:43;5.00;;;1.90;;
15776;SDS011;7989;51.198;6.676;2023-12-29T08:46:10;7.18;;;1.60;;
15776;SDS011;7989;51.198;6.676;2023-12-29T08:48:36;3.88;;;1.58;;
15776;SDS011;7989;51.198;6.676;2023-12-29T08:51:03;6.82;;;1.60;;
15776;SDS011;7989;51.198;6.676;2023-12-29T08:53:31;5.00;;;1.85;;
15776;SDS011;7989;51.198;6.676;2023-12-29T08:56:00;7.20;;;1.67;;
15776;SDS011;7989;51.198;6.676;2023-12-29T08:58:29;5.57;;;1.35;;
15776;SDS011;7989;51.198;6.676;2023-12-29T09:00:56;4.45;;;1.50;;
15776;SDS011;7989;51.198;6.676;2023-12-29T09:03:23;4.35;;;1.73;;
15776;SDS011;7989;51.198;6.676;2023-12-29T09:05:49;5.13;;;2.05;;
15776;SDS011;7989;51.198;6.676;2023-12-29T09:08:16;5.78;;;2.38;;
15776;SDS011;7989;51.198;6.676;2023-12-29T09:10:43;4.40;;;1.80;;
15776;SDS011;7989;51.198;6.676;2023-12-29T09:13:10;3.58;;;1.58;;
15776;SDS011;7989;51.198;6.676;2023-12-29T09:15:38;4.22;;;2.47;;
15776;SDS011;7989;51.198;6.676;2023-12-29T09:18:05;5.53;;;1.75;;
15776;SDS011;7989;51.198;6.676;2023-12-29T09:20:32;3.67;;;1.25;;
15776;SDS011;7989;51.198;6.676;2023-12-29T09:22:59;4.50;;;1.77;;
15776;SDS011;7989;51.198;6.676;2023-12-29T09:25:25;6.18;;;2.20;;
15776;SDS011;7989;51.198;6.676;2023-12-29T09:27:52;5.90;;;1.48;;
15776;SDS011;7989;51.198;6.676;2023-12-29T09:30:19;3.20;;;1.38;;
15776;SDS011;7989;51.198;6.676;2023-12-29T09:32:47;3.63;;;1.58;;
15776;SDS011;7989;51.198;6.676;2023-12-29T09:35:14;2.83;;;1.30;;
15776;SDS011;7989;51.198;6.676;2023-12-29T09:37:42;2.22;;;1.48;;
15776;SDS011;7989;51.198;6.676;2023-12-29T09:40:10;3.88;;;1.30;;
15776;SDS011;7989;51.198;6.676;2023-12-29T09:42:37;2.28;;;1.33;;
15776;SDS011;7989;51.198;6.676;2023-12-29T09:45:06;5.22;;;1.90;;
15776;SDS011;7989;51.198;6.676;2023-12-29T09:47:36;2.72;;;1.25;;
15776;SDS011;7989;51.198;6.676;2023-12-29T09:50:07;3.92;;;1.80;;
15776;SDS011;7989;51.198;6.676;2023-12-29T09:52:36;6.78;;;2.63;;
15776;SDS011;7989;51.198;6.676;2023-12-29T09:55:04;4.10;;;1.60;;
15776;SDS011;7989;51.198;6.676;2023-12-29T09:57:34;7.00;;;1.67;;
15776;SDS011;7989;51.198;6.676;2023-12-29T10:00:02;7.97;;;2.33;;
15776;SDS011;7989;51.198;6.676;2023-12-29T10:02:29;4.55;;;1.63;;
15776;SDS011;7989;51.198;6.676;2023-12-29T10:04:57;6.32;;;2.20;;
15776;SDS011;7989;51.198;6.676;2023-12-29T10:07:29;2.80;;;1.70;;
15776;SDS011;7989;51.198;6.676;2023-12-29T10:09:58;2.85;;;1.52;;
15776;SDS011;7989;51.198;6.676;2023-12-29T10:12:25;5.32;;;1.65;;
15776;SDS011;7989;51.198;6.676;2023-12-29T10:14:57;5.93;;;1.95;;
15776;SDS011;7989;51.198;6.676;2023-12-29T10:17:34;3.72;;;1.95;;
15776;SDS011;7989;51.198;6.676;2023-12-29T10:20:10;7.18;;;2.75;;
15776;SDS011;7989;51.198;6.676;2023-12-29T10:22:51;5.50;;;1.75;;
15776;SDS011;7989;51.198;6.676;2023-12-29T10:25:23;7.90;;;2.53;;
15776;SDS011;7989;51.198;6.676;2023-12-29T10:27:50;4.95;;;1.55;;
15776;SDS011;7989;51.198;6.676;2023-12-29T10:30:18;5.43;;;1.98;;
15776;SDS011;7989;51.198;6.676;2023-12-29T10:32:48;4.32;;;1.70;;
15776;SDS011;7989;51.198;6.676;2023-12-29T10:35:15;9.07;;;1.90;;
15776;SDS011;7989;51.198;6.676;2023-12-29T10:37:43;9.95;;;2.70;;
15776;SDS011;7989;51.198;6.676;2023-12-29T10:40:12;6.00;;;2.15;;
15776;SDS011;7989;51.198;6.676;2023-12-29T10:42:51;5.28;;;2.10;;
15776;SDS011;7989;51.198;6.676;2023-12-29T10:45:18;3.47;;;1.60;;
15776;SDS011;7989;51.198;6.676;2023-12-29T10:47:46;4.78;;;2.10;;
15776;SDS011;7989;51.198;6.676;2023-12-29T10:50:13;4.63;;;2.17;;
15776;SDS011;7989;51.198;6.676;2023-12-29T10:52:40;7.00;;;1.40;;
15776;SDS011;7989;51.198;6.676;2023-12-29T10:55:07;4.20;;;1.33;;
15776;SDS011;7989;51.198;6.676;2023-12-29T10:57:37;7.43;;;2.10;;
15776;SDS011;7989;51.198;6.676;2023-12-29T11:00:06;5.10;;;1.58;;
15776;SDS011;7989;51.198;6.676;2023-12-29T11:02:34;8.48;;;1.88;;
15776;SDS011;7989;51.198;6.676;2023-12-29T11:05:02;6.03;;;1.80;;
15776;SDS011;7989;51.198;6.676;2023-12-29T11:07:33;3.78;;;1.15;;
15776;SDS011;7989;51.198;6.676;2023-12-29T11:10:02;5.82;;;1.42;;
15776;SDS011;7989;51.198;6.676;2023-12-29T11:12:30;5.65;;;1.50;;
15776;SDS011;7989;51.198;6.676;2023-12-29T11:14:59;7.32;;;2.22;;
15776;SDS011;7989;51.198;6.676;2023-12-29T11:17:29;5.18;;;1.35;;
15776;SDS011;7989;51.198;6.676;2023-12-29T11:19:58;5.00;;;1.50;;
15776;SDS011;7989;51.198;6.676;2023-12-29T11:22:27;6.20;;;1.55;;
15776;SDS011;7989;51.198;6.676;2023-12-29T11:24:55;5.07;;;1.67;;
15776;SDS011;7989;51.198;6.676;2023-12-29T11:27:25;5.60;;;1.40;;
15776;SDS011;7989;51.198;6.676;2023-12-29T11:29:54;4.38;;;1.48;;
15776;SDS011;7989;51.198;6.676;2023-12-29T11:32:24;7.00;;;1.75;;
15776;SDS011;7989;51.198;6.676;2023-12-29T11:35:03;5.25;;;1.35;;
15776;SDS011;7989;51.198;6.676;2023-12-29T11:37:42;6.03;;;2.53;;
15776;SDS011;7989;51.198;6.676;2023-12-29T11:40:26;7.05;;;1.92;;
15776;SDS011;7989;51.198;6.676;2023-12-29T11:43:01;8.98;;;2.38;;
15776;SDS011;7989;51.198;6.676;2023-12-29T11:45:33;4.93;;;1.90;;
15776;SDS011;7989;51.198;6.676;2023-12-29T11:48:03;4.05;;;1.50;;
15776;SDS011;7989;51.198;6.676;2023-12-29T11:50:31;6.80;;;1.65;;
15776;SDS011;7989;51.198;6.676;2023-12-29T11:52:59;5.80;;;2.03;;
15776;SDS011;7989;51.198;6.676;2023-12-29T11:55:29;7.10;;;2.40;;
15776;SDS011;7989;51.198;6.676;2023-12-29T11:57:57;3.20;;;1.35;;
15776;SDS011;7989;51.198;6.676;2023-12-29T12:03:18;3.50;;;1.08;;
15776;SDS011;7989;51.198;6.676;2023-12-29T12:05:51;3.00;;;0.80;;
15776;SDS011;7989;51.198;6.676;2023-12-29T12:08:31;1.75;;;0.77;;
15776;SDS011;7989;51.198;6.676;2023-12-29T12:14:04;4.53;;;1.77;;
15776;SDS011;7989;51.198;6.676;2023-12-29T12:16:47;4.28;;;1.60;;
15776;SDS011;7989;51.198;6.676;2023-12-29T12:19:16;3.45;;;1.73;;
15776;SDS011;7989;51.198;6.676;2023-12-29T12:21:45;3.95;;;1.33;;
15776;SDS011;7989;51.198;6.676;2023-12-29T12:24:14;5.57;;;1.48;;
15776;SDS011;7989;51.198;6.676;2023-12-29T12:26:44;4.45;;;1.45;;
15776;SDS011;7989;51.198;6.676;2023-12-29T12:29:12;4.88;;;1.90;;
15776;SDS011;7989;51.198;6.676;2023-12-29T12:31:51;6.80;;;1.55;;
15776;SDS011;7989;51.198;6.676;2023-12-29T12:34:20;3.83;;;1.38;;
15776;SDS011;7989;51.198;6.676;2023-12-29T12:36:50;2.70;;;1.60;;
15776;SDS011;7989;51.198;6.676;2023-12-29T12:39:17;5.07;;;1.05;;
15776;SDS011;7989;51.198;6.676;2023-12-29T12:41:44;1.80;;;1.00;;
15776;SDS011;7989;51.198;6.676;2023-12-29T12:44:12;5.20;;;1.38;;
15776;SDS011;7989;51.198;6.676;2023-12-29T12:46:40;2.65;;;1.10;;
15776;SDS011;7989;51.198;6.676;2023-12-29T12:49:14;2.17;;;1.10;;
15776;SDS011;7989;51.198;6.676;2023-12-29T12:51:44;2.75;;;1.30;;
15776;SDS011;7989;51.198;6.676;2023-12-29T12:54:11;3.45;;;1.27;;
15776;SDS011;7989;51.198;6.676;2023-12-29T12:56:40;5.80;;;1.88;;
15776;SDS011;7989;51.198;6.676;2023-12-29T12:59:08;2.47;;;1.20;;
15776;SDS011;7989;51.198;6.676;2023-12-29T13:01:35;1.35;;;0.73;;
15776;SDS011;7989;51.198;6.676;2023-12-29T13:04:03;3.55;;;1.50;;
15776;SDS011;7989;51.198;6.676;2023-12-29T13:06:31;3.53;;;1.35;;
15776;SDS011;7989;51.198;6.676;2023-12-29T13:09:03;1.10;;;0.80;;
15776;SDS011;7989;51.198;6.676;2023-12-29T13:11:34;2.40;;;1.25;;
15776;SDS011;7989;51.198;6.676;2023-12-29T13:14:00;2.60;;;1.42;;
15776;SDS011;7989;51.198;6.676;2023-12-29T13:16:32;3.17;;;1.23;;
15776;SDS011;7989;51.198;6.676;2023-12-29T13:19:14;3.30;;;1.10;;
15776;SDS011;7989;51.198;6.676;2023-12-29T13:21:41;3.30;;;0.85;;
15776;SDS011;7989;51.198;6.676;2023-12-29T13:24:09;4.13;;;1.38;;
15776;SDS011;7989;51.198;6.676;2023-12-29T13:26:37;6.32;;;1.58;;
15776;SDS011;7989;51.198;6.676;2023-12-29T13:29:04;3.65;;;1.33;;
15776;SDS011;7989;51.198;6.676;2023-12-29T13:31:31;3.65;;;1.15;;
15776;SDS011;7989;51.198;6.676;2023-12-29T13:33:59;3.00;;;1.00;;
15776;SDS011;7989;51.198;6.676;2023-12-29T13:36:34;3.35;;;1.20;;
15776;SDS011;7989;51.198;6.676;2023-12-29T13:39:06;3.47;;;1.25;;
15776;SDS011;7989;51.198;6.676;2023-12-29T13:41:36;2.47;;;0.90;;
15776;SDS011;7989;51.198;6.676;2023-12-29T13:44:04;2.30;;;1.10;;
15776;SDS011;7989;51.198;6.676;2023-12-29T13:46:31;3.15;;;1.05;;
15776;SDS011;7989;51.198;6.676;2023-12-29T13:48:59;4.38;;;1.60;;
15776;SDS011;7989;51.198;6.676;2023-12-29T13:51:26;3.40;;;1.20;;
15776;SDS011;7989;51.198;6.676;2023-12-29T13:53:59;5.35;;;1.42;;
15776;SDS011;7989;51.198;6.676;2023-12-29T13:56:26;4.13;;;1.20;;
15776;SDS011;7989;51.198;6.676;2023-12-29T13:58:55;3.90;;;1.48;;
15776;SDS011;7989;51.198;6.676;2023-12-29T14:01:21;3.78;;;1.42;;
15776;SDS011;7989;51.198;6.676;2023-12-29T14:03:50;4.78;;;1.30;;
15776;SDS011;7989;51.198;6.676;2023-12-29T14:06:21;2.38;;;1.30;;
15776;SDS011;7989;51.198;6.676;2023-12-29T14:08:53;3.13;;;1.10;;
15776;SDS011;7989;51.198;6.676;2023-12-29T14:11:20;3.80;;;1.13;;
15776;SDS011;7989;51.198;6.676;2023-12-29T14:13:47;3.13;;;1.08;;
15776;SDS011;7989;51.198;6.676;2023-12-29T14:16:16;3.65;;;1.52;;
15776;SDS011;7989;51.198;6.676;2023-12-29T14:18:54;3.15;;;1.08;;
15776;SDS011;7989;51.198;6.676;2023-12-29T14:21:23;4.68;;;1.30;;
15776;SDS011;7989;51.198;6.676;2023-12-29T14:24:00;1.75;;;1.05;;
15776;SDS011;7989;51.198;6.676;2023-12-29T14:26:32;1.80;;;0.70;;
15776;SDS011;7989;51.198;6.676;2023-12-29T14:29:02;1.83;;;0.80;;
15776;SDS011;7989;51.198;6.676;2023-12-29T14:31:38;1.95;;;0.75;;
15776;SDS011;7989;51.198;6.676;2023-12-29T14:34:07;2.42;;;0.75;;
15776;SDS011;7989;51.198;6.676;2023-12-29T14:36:35;0.82;;;0.52;;
15776;SDS011;7989;51.198;6.676;2023-12-29T14:39:02;0.90;;;0.60;;
15776;SDS011;7989;51.198;6.676;2023-12-29T14:41:31;1.10;;;0.60;;
15776;SDS011;7989;51.198;6.676;2023-12-29T14:43:58;1.10;;;0.60;;
15776;SDS011;7989;51.198;6.676;2023-12-29T14:46:25;1.17;;;0.40;;
15776;SDS011;7989;51.198;6.676;2023-12-29T14:48:54;1.45;;;0.85;;
15776;SDS011;7989;51.198;6.676;2023-12-29T14:51:22;1.30;;;0.60;;
15776;SDS011;7989;51.198;6.676;2023-12-29T14:53:49;1.17;;;0.88;;
15776;SDS011;7989;51.198;6.676;2023-12-29T14:56:16;2.10;;;1.98;;
15776;SDS011;7989;51.198;6.676;2023-12-29T14:58:44;2.53;;;2.28;;
15776;SDS011;7989;51.198;6.676;2023-12-29T15:01:11;2.58;;;2.35;;
15776;SDS011;7989;51.198;6.676;2023-12-29T15:03:38;2.13;;;1.67;;
15776;SDS011;7989;51.198;6.676;2023-12-29T15:06:06;1.58;;;0.80;;
15776;SDS011;7989;51.198;6.676;2023-12-29T15:08:33;2.20;;;1.10;;
15776;SDS011;7989;51.198;6.676;2023-12-29T15:11:01;1.65;;;0.80;;
15776;SDS011;7989;51.198;6.676;2023-12-29T15:13:28;3.30;;;3.00;;